Time,TemperatureF,DewpointF,PressureIn,WindDirection,WindDirectionDegrees,WindSpeedMPH,WindSpeedGustMPH,Humidity,HourlyPrecipIn,Conditions,Clouds,dailyrainin,SoftwareType,DateUTC
2013-11-20 00:00:00,25.7,23.0,30.39,West,264,0.0,0.0,88,0.00,,,0.00,weatherlink.com 1.10,2013-11-20 05:00:00,
2013-11-20 00:15:00,25.9,23.0,30.39,West,264,0.0,0.0,88,0.00,,,0.00,weatherlink.com 1.10,2013-11-20 05:15:00,
2013-11-20 00:30:00,25.7,22.0,30.39,West,264,0.0,0.0,87,0.00,,,0.00,weatherlink.com 1.10,2013-11-20 05:30:00,
2013-11-20 00:45:00,26.3,23.0,30.39,West,264,0.0,0.0,88,0.00,,,0.00,weatherlink.com 1.10,2013-11-20 05:45:00,
2013-11-20 01:00:00,27.0,23.0,30.39,SW,224,0.0,0.0,86,0.00,,,0.00,weatherlink.com 1.10,2013-11-20 06:00:00,
2013-11-20 01:15:00,26.2,23.0,30.39,SW,224,0.0,0.0,86,0.00,,,0.00,weatherlink.com 1.10,2013-11-20 06:15:00,
2013-11-20 01:30:00,25.0,21.0,30.38,SW,224,0.0,0.0,86,0.00,,,0.00,weatherlink.com 1.10,2013-11-20 06:30:00,
2013-11-20 01:45:00,24.3,21.0,30.38,SW,224,0.0,0.0,88,0.00,,,0.00,weatherlink.com 1.10,2013-11-20 06:45:00,
2013-11-20 02:00:00,24.2,21.0,30.38,SW,224,0.0,0.0,88,0.00,,,0.00,weatherlink.com 1.10,2013-11-20 07:00:00,
2013-11-20 02:15:00,24.1,21.0,30.38,SW,224,0.0,0.0,89,0.00,,,0.00,weatherlink.com 1.10,2013-11-20 07:15:00,
2013-11-20 02:30:00,26.7,24.0,30.39,SW,224,0.0,1.0,90,0.00,,,0.00,weatherlink.com 1.10,2013-11-20 07:30:00,
2013-11-20 02:45:00,27.6,24.0,30.39,SW,226,0.0,1.0,87,0.00,,,0.00,weatherlink.com 1.10,2013-11-20 07:45:00,
2013-11-20 03:00:00,27.3,24.0,30.39,SW,226,0.0,0.0,86,0.00,,,0.00,weatherlink.com 1.10,2013-11-20 08:00:00,
2013-11-20 03:16:00,27.7,24.0,30.39,SE,134,0.0,1.0,86,0.00,,,0.00,weatherlink.com 1.10,2013-11-20 08:16:00,
2013-11-20 03:31:00,28.6,25.0,30.39,SE,137,2.0,3.0,85,0.00,,,0.00,weatherlink.com 1.10,2013-11-20 08:31:00,
2013-11-20 03:46:00,29.6,25.0,30.38,ESE,115,1.0,5.0,83,0.00,,,0.00,weatherlink.com 1.10,2013-11-20 08:46:00,
2013-11-20 04:01:00,29.8,25.0,30.38,ESE,105,0.0,5.0,82,0.00,,,0.00,weatherlink.com 1.10,2013-11-20 09:01:00,
2013-11-20 04:16:00,29.3,25.0,30.39,SSW,207,0.0,2.0,83,0.00,,,0.00,weatherlink.com 1.10,2013-11-20 09:16:00,
2013-11-20 04:31:00,29.1,25.0,30.39,ESE,102,0.0,2.0,83,0.00,,,0.00,weatherlink.com 1.10,2013-11-20 09:31:00,
2013-11-20 04:46:00,28.9,24.0,30.39,SE,124,0.0,2.0,83,0.00,,,0.00,weatherlink.com 1.10,2013-11-20 09:46:00,
2013-11-20 05:01:00,28.5,24.0,30.39,SSE,160,1.0,2.0,84,0.00,,,0.00,weatherlink.com 1.10,2013-11-20 10:01:00,
2013-11-20 05:16:00,28.4,24.0,30.39,SE,143,0.0,3.0,84,0.00,,,0.00,weatherlink.com 1.10,2013-11-20 10:16:00,
2013-11-20 05:31:00,28.0,24.0,30.39,SE,137,0.0,3.0,84,0.00,,,0.00,weatherlink.com 1.10,2013-11-20 10:31:00,
2013-11-20 05:46:00,27.5,24.0,30.40,SE,137,0.0,1.0,85,0.00,,,0.00,weatherlink.com 1.10,2013-11-20 10:46:00,
2013-11-20 06:01:00,27.1,24.0,30.40,SSE,160,1.0,1.0,86,0.00,,,0.00,weatherlink.com 1.10,2013-11-20 11:01:00,
2013-11-20 06:16:00,27.0,23.0,30.40,SSW,193,0.0,3.0,86,0.00,,,0.00,weatherlink.com 1.10,2013-11-20 11:16:00,
2013-11-20 06:31:00,27.2,24.0,30.40,East,98,0.0,2.0,86,0.00,,,0.00,weatherlink.com 1.10,2013-11-20 11:31:00,
2013-11-20 06:46:00,27.3,24.0,30.40,South,175,0.0,2.0,86,0.00,,,0.00,weatherlink.com 1.10,2013-11-20 11:46:00,
2013-11-20 07:01:00,27.3,24.0,30.41,SE,129,0.0,2.0,86,0.00,,,0.00,weatherlink.com 1.10,2013-11-20 12:01:00,
2013-11-20 07:16:00,27.3,24.0,30.41,SSE,147,0.0,3.0,86,0.00,,,0.00,weatherlink.com 1.10,2013-11-20 12:16:00,
2013-11-20 07:31:00,27.5,24.0,30.41,ESE,115,3.0,5.0,86,0.00,,,0.00,weatherlink.com 1.10,2013-11-20 12:31:00,
2013-11-20 07:47:00,28.0,24.0,30.41,SSE,164,1.0,5.0,85,0.00,,,0.00,weatherlink.com 1.10,2013-11-20 12:47:00,
2013-11-20 08:02:00,28.9,25.0,30.42,ESE,122,0.0,7.0,84,0.00,,,0.00,weatherlink.com 1.10,2013-11-20 13:02:00,
2013-11-20 08:17:00,30.0,25.0,30.41,SW,216,4.0,10.0,82,0.00,,,0.00,weatherlink.com 1.10,2013-11-20 13:17:00,
2013-11-20 08:32:00,30.9,25.0,30.41,ESE,121,3.0,11.0,80,0.00,,,0.00,weatherlink.com 1.10,2013-11-20 13:32:00,
2013-11-20 08:47:00,31.6,26.0,30.41,ESE,103,4.0,9.0,79,0.00,,,0.00,weatherlink.com 1.10,2013-11-20 13:47:00,
2013-11-20 09:02:00,32.1,26.0,30.42,ENE,67,2.0,12.0,78,0.00,,,0.00,weatherlink.com 1.10,2013-11-20 14:02:00,
2013-11-20 09:17:00,32.8,26.0,30.41,SE,127,15.0,15.0,76,0.00,,,0.00,weatherlink.com 1.10,2013-11-20 14:17:00,
2013-11-20 09:32:00,33.8,26.0,30.42,ENE,67,3.0,9.0,73,0.00,,,0.00,weatherlink.com 1.10,2013-11-20 14:32:00,
2013-11-20 09:47:00,34.5,25.0,30.41,East,88,2.0,11.0,69,0.00,,,0.00,weatherlink.com 1.10,2013-11-20 14:47:00,
2013-11-20 10:02:00,35.7,24.0,30.41,East,86,3.0,9.0,62,0.00,,,0.00,weatherlink.com 1.10,2013-11-20 15:02:00,
2013-11-20 10:17:00,36.7,23.0,30.41,SE,127,3.0,11.0,58,0.00,,,0.00,weatherlink.com 1.10,2013-11-20 15:17:00,
2013-11-20 10:32:00,37.3,23.0,30.40,ESE,120,6.0,13.0,56,0.00,,,0.00,weatherlink.com 1.10,2013-11-20 15:32:00,
2013-11-20 10:47:00,38.5,23.0,30.40,East,95,3.0,10.0,55,0.00,,,0.00,weatherlink.com 1.10,2013-11-20 15:47:00,
2013-11-20 11:02:00,39.8,23.0,30.39,ESE,109,4.0,10.0,52,0.00,,,0.00,weatherlink.com 1.10,2013-11-20 16:02:00,
2013-11-20 11:17:00,40.9,21.0,30.38,SE,129,8.0,11.0,45,0.00,,,0.00,weatherlink.com 1.10,2013-11-20 16:17:00,
2013-11-20 11:32:00,41.4,21.0,30.38,ESE,108,4.0,12.0,45,0.00,,,0.00,weatherlink.com 1.10,2013-11-20 16:32:00,
2013-11-20 11:47:00,42.0,21.0,30.37,NE,54,5.0,12.0,44,0.00,,,0.00,weatherlink.com 1.10,2013-11-20 16:47:00,
2013-11-20 12:02:00,42.6,20.0,30.36,SSE,161,3.0,14.0,40,0.00,,,0.00,weatherlink.com 1.10,2013-11-20 17:02:00,
2013-11-20 12:17:00,43.7,21.0,30.35,ESE,114,5.0,10.0,40,0.00,,,0.00,weatherlink.com 1.10,2013-11-20 17:17:00,
2013-11-20 12:33:00,44.5,20.0,30.35,SE,134,6.0,10.0,37,0.00,,,0.00,weatherlink.com 1.10,2013-11-20 17:33:00,
2013-11-20 12:48:00,45.4,19.0,30.34,ESE,108,3.0,12.0,35,0.00,,,0.00,weatherlink.com 1.10,2013-11-20 17:48:00,
2013-11-20 13:03:00,45.2,17.0,30.34,South,186,6.0,12.0,33,0.00,,,0.00,weatherlink.com 1.10,2013-11-20 18:03:00,
2013-11-20 13:17:00,45.7,18.0,30.34,SE,127,6.0,11.0,33,0.00,,,0.00,weatherlink.com 1.10,2013-11-20 18:17:00,
2013-11-20 13:32:00,46.2,18.0,30.33,ESE,102,4.0,9.0,33,0.00,,,0.00,weatherlink.com 1.10,2013-11-20 18:32:00,
2013-11-20 13:47:00,45.9,17.0,30.33,ESE,114,3.0,10.0,32,0.00,,,0.00,weatherlink.com 1.10,2013-11-20 18:47:00,
2013-11-20 14:02:00,45.9,17.0,30.32,South,188,3.0,11.0,32,0.00,,,0.00,weatherlink.com 1.10,2013-11-20 19:02:00,
2013-11-20 14:17:00,45.9,17.0,30.32,ESE,103,5.0,8.0,32,0.00,,,0.00,weatherlink.com 1.10,2013-11-20 19:17:00,
2013-11-20 14:32:00,46.0,18.0,30.32,East,89,1.0,8.0,33,0.00,,,0.00,weatherlink.com 1.10,2013-11-20 19:32:00,
2013-11-20 14:47:00,45.8,17.0,30.31,ESE,122,2.0,9.0,32,0.00,,,0.00,weatherlink.com 1.10,2013-11-20 19:47:00,
2013-11-20 15:02:00,45.9,17.0,30.31,SSE,156,6.0,9.0,32,0.00,,,0.00,weatherlink.com 1.10,2013-11-20 20:02:00,
2013-11-20 15:17:00,46.0,18.0,30.31,ESE,107,2.0,6.0,33,0.00,,,0.00,weatherlink.com 1.10,2013-11-20 20:17:00,
2013-11-20 15:32:00,46.0,17.0,30.31,ESE,103,4.0,11.0,32,0.00,,,0.00,weatherlink.com 1.10,2013-11-20 20:32:00,
2013-11-20 15:47:00,45.8,19.0,30.31,ESE,103,5.0,11.0,34,0.00,,,0.00,weatherlink.com 1.10,2013-11-20 20:47:00,
2013-11-20 16:02:00,45.3,18.0,30.30,ESE,102,2.0,11.0,34,0.00,,,0.00,weatherlink.com 1.10,2013-11-20 21:02:00,
2013-11-20 16:17:00,44.6,19.0,30.30,ESE,111,6.0,9.0,36,0.00,,,0.00,weatherlink.com 1.10,2013-11-20 21:17:00,
2013-11-20 16:32:00,44.5,19.0,30.29,SE,131,2.0,9.0,36,0.00,,,0.00,weatherlink.com 1.10,2013-11-20 21:32:00,
2013-11-20 16:47:00,44.3,19.0,30.28,SE,129,0.0,11.0,36,0.00,,,0.00,weatherlink.com 1.10,2013-11-20 21:47:00,
2013-11-20 17:02:00,43.5,19.0,30.28,SE,144,8.0,8.0,38,0.00,,,0.00,weatherlink.com 1.10,2013-11-20 22:02:00,
2013-11-20 17:17:00,42.9,19.0,30.28,ESE,112,2.0,5.0,39,0.00,,,0.00,weatherlink.com 1.10,2013-11-20 22:17:00,
2013-11-20 17:32:00,42.6,20.0,30.28,SE,143,1.0,8.0,40,0.00,,,0.00,weatherlink.com 1.10,2013-11-20 22:32:00,
2013-11-20 17:47:00,42.1,19.0,30.28,SSE,148,1.0,7.0,40,0.00,,,0.00,weatherlink.com 1.10,2013-11-20 22:47:00,
2013-11-20 18:02:00,41.4,20.0,30.29,SE,134,0.0,3.0,42,0.00,,,0.00,weatherlink.com 1.10,2013-11-20 23:02:00,
2013-11-20 18:17:00,41.0,19.0,30.30,SW,227,1.0,7.0,42,0.00,,,0.00,weatherlink.com 1.10,2013-11-20 23:17:00,
2013-11-20 18:32:00,40.5,19.0,30.30,South,171,0.0,3.0,43,0.00,,,0.00,weatherlink.com 1.10,2013-11-20 23:32:00,
2013-11-20 18:47:00,39.9,19.0,30.30,ESE,115,2.0,2.0,44,0.00,,,0.00,weatherlink.com 1.10,2013-11-20 23:47:00,
2013-11-20 19:02:00,39.7,20.0,30.30,SE,124,1.0,4.0,45,0.00,,,0.00,weatherlink.com 1.10,2013-11-21 00:02:00,
2013-11-20 19:17:00,39.5,20.0,30.30,SE,137,1.0,5.0,45,0.00,,,0.00,weatherlink.com 1.10,2013-11-21 00:17:00,
2013-11-20 19:32:00,39.3,19.0,30.30,SE,124,2.0,4.0,45,0.00,,,0.00,weatherlink.com 1.10,2013-11-21 00:32:00,
2013-11-20 19:47:00,39.3,19.0,30.30,SSE,153,3.0,4.0,45,0.00,,,0.00,weatherlink.com 1.10,2013-11-21 00:47:00,
2013-11-20 20:02:00,39.3,19.0,30.30,East,90,1.0,6.0,45,0.00,,,0.00,weatherlink.com 1.10,2013-11-21 01:02:00,
2013-11-20 20:17:00,39.3,19.0,30.30,SE,134,1.0,5.0,44,0.00,,,0.00,weatherlink.com 1.10,2013-11-21 01:17:00,
2013-11-20 20:32:00,39.2,19.0,30.29,ESE,123,3.0,6.0,44,0.00,,,0.00,weatherlink.com 1.10,2013-11-21 01:32:00,
2013-11-20 20:47:00,39.0,18.0,30.29,SE,125,1.0,6.0,43,0.00,,,0.00,weatherlink.com 1.10,2013-11-21 01:47:00,
2013-11-20 21:02:00,38.9,18.0,30.29,East,95,2.0,6.0,43,0.00,,,0.00,weatherlink.com 1.10,2013-11-21 02:02:00,
2013-11-20 21:17:00,38.9,18.0,30.29,SE,130,1.0,6.0,43,0.00,,,0.00,weatherlink.com 1.10,2013-11-21 02:17:00,
2013-11-20 21:32:00,38.8,18.0,30.29,ESE,120,4.0,7.0,43,0.00,,,0.00,weatherlink.com 1.10,2013-11-21 02:32:00,
2013-11-20 21:48:00,38.9,17.0,30.29,SE,134,2.0,9.0,42,0.00,,,0.00,weatherlink.com 1.10,2013-11-21 02:48:00,
2013-11-20 22:03:00,38.9,17.0,30.29,East,79,4.0,8.0,42,0.00,,,0.00,weatherlink.com 1.10,2013-11-21 03:03:00,
2013-11-20 22:18:00,38.8,17.0,30.29,SE,134,2.0,11.0,42,0.00,,,0.00,weatherlink.com 1.10,2013-11-21 03:18:00,
2013-11-20 22:33:00,38.3,17.0,30.29,SE,143,2.0,7.0,43,0.00,,,0.00,weatherlink.com 1.10,2013-11-21 03:33:00,
2013-11-20 22:48:00,38.2,17.0,30.30,SSE,153,5.0,8.0,43,0.00,,,0.00,weatherlink.com 1.10,2013-11-21 03:48:00,
2013-11-20 23:03:00,38.1,18.0,30.29,ESE,112,2.0,9.0,44,0.00,,,0.00,weatherlink.com 1.10,2013-11-21 04:03:00,
2013-11-20 23:18:00,38.0,18.0,30.29,East,100,3.0,8.0,44,0.00,,,0.00,weatherlink.com 1.10,2013-11-21 04:18:00,
2013-11-20 23:33:00,38.1,18.0,30.29,SE,137,1.0,8.0,44,0.00,,,0.00,weatherlink.com 1.10,2013-11-21 04:33:00,
2013-11-20 23:48:00,38.1,18.0,30.29,SE,124,5.0,9.0,45,0.00,,,0.00,weatherlink.com 1.10,2013-11-21 04:48:00,